sensor_id;sensor_type;location;lat;lon;timestamp;pressure;altitude;pressure_sealevel;temperature;humidity
29121;BME280;16191;49.548;8.658;2023-02-12T00:00:36;102491.41;;;5.74;100.00
29121;BME280;16191;49.548;8.658;2023-02-12T00:03:03;102479.28;;;5.73;100.00
29121;BME280;16191;49.548;8.658;2023-02-12T00:05:30;102474.06;;;5.70;100.00
29121;BME280;16191;49.548;8.658;2023-02-12T00:07:57;102476.63;;;5.68;100.00
29121;BME280;16191;49.548;8.658;2023-02-12T00:10:24;102477.47;;;5.67;100.00
29121;BME280;16191;49.548;8.658;2023-02-12T00:12:54;102462.84;;;5.71;100.00
29121;BME280;16191;49.548;8.658;2023-02-12T00:15:21;102463.69;;;5.70;100.00
29121;BME280;16191;49.548;8.658;2023-02-12T00:17:48;102469.75;;;5.70;100.00
29121;BME280;16191;49.548;8.658;2023-02-12T00:20:15;102471.50;;;5.71;100.00
29121;BME280;16191;49.548;8.658;2023-02-12T00:22:42;102472.44;;;5.76;100.00
29121;BME280;16191;49.548;8.658;2023-02-12T00:25:09;102474.81;;;5.64;100.00
29121;BME280;16191;49.548;8.658;2023-02-12T00:27:36;102479.22;;;5.68;100.00
29121;BME280;16191;49.548;8.658;2023-02-12T00:30:02;102477.41;;;5.61;100.00
29121;BME280;16191;49.548;8.658;2023-02-12T00:32:30;102470.53;;;5.66;100.00
29121;BME280;16191;49.548;8.658;2023-02-12T00:34:57;102473.13;;;5.65;100.00
29121;BME280;16191;49.548;8.658;2023-02-12T00:37:23;102475.78;;;5.69;100.00
29121;BME280;16191;49.548;8.658;2023-02-12T00:39:52;102478.41;;;5.72;100.00
29121;BME280;16191;49.548;8.658;2023-02-12T00:42:18;102470.53;;;5.65;100.00
29121;BME280;16191;49.548;8.658;2023-02-12T00:44:45;102479.19;;;5.67;100.00
29121;BME280;16191;49.548;8.658;2023-02-12T00:47:12;102473.22;;;5.71;100.00
29121;BME280;16191;49.548;8.658;2023-02-12T00:49:40;102481.00;;;5.72;100.00
29121;BME280;16191;49.548;8.658;2023-02-12T00:52:07;102486.13;;;5.68;100.00
29121;BME280;16191;49.548;8.658;2023-02-12T00:54:34;102480.97;;;5.69;100.00
29121;BME280;16191;49.548;8.658;2023-02-12T00:57:01;102476.63;;;5.68;100.00
29121;BME280;16191;49.548;8.658;2023-02-12T00:59:28;102479.16;;;5.62;100.00
29121;BME280;16191;49.548;8.658;2023-02-12T01:01:55;102486.75;;;5.53;100.00
29121;BME280;16191;49.548;8.658;2023-02-12T01:04:22;102488.63;;;5.62;100.00
29121;BME280;16191;49.548;8.658;2023-02-12T01:06:49;102490.38;;;5.64;100.00
29121;BME280;16191;49.548;8.658;2023-02-12T01:09:17;102494.72;;;5.67;100.00
29121;BME280;16191;49.548;8.658;2023-02-12T01:11:46;102488.69;;;5.66;100.00
29121;BME280;16191;49.548;8.658;2023-02-12T01:14:13;102487.81;;;5.66;100.00
29121;BME280;16191;49.548;8.658;2023-02-12T01:16:39;102484.38;;;5.67;100.00
29121;BME280;16191;49.548;8.658;2023-02-12T01:19:06;102487.78;;;5.64;100.00
29121;BME280;16191;49.548;8.658;2023-02-12T01:21:34;102491.28;;;5.68;100.00
29121;BME280;16191;49.548;8.658;2023-02-12T01:24:01;102480.00;;;5.64;100.00
29121;BME280;16191;49.548;8.658;2023-02-12T01:26:31;102479.22;;;5.68;100.00
29121;BME280;16191;49.548;8.658;2023-02-12T01:29:02;102482.63;;;5.66;100.00
29121;BME280;16191;49.548;8.658;2023-02-12T01:31:32;102490.41;;;5.67;100.00
29121;BME280;16191;49.548;8.658;2023-02-12T01:34:00;102478.28;;;5.65;100.00
29121;BME280;16191;49.548;8.658;2023-02-12T01:36:29;102487.78;;;5.64;100.00
29121;BME280;16191;49.548;8.658;2023-02-12T01:39:16;102485.19;;;5.64;100.00
29121;BME280;16191;49.548;8.658;2023-02-12T01:42:03;102486.06;;;5.65;100.00
29121;BME280;16191;49.548;8.658;2023-02-12T01:48:33;102483.44;;;5.63;100.00
29121;BME280;16191;49.548;8.658;2023-02-12T01:51:23;102476.56;;;5.62;100.00
29121;BME280;16191;49.548;8.658;2023-02-12T01:54:12;102475.69;;;5.65;100.00
29121;BME280;16191;49.548;8.658;2023-02-12T01:56:41;102470.56;;;5.68;100.00
29121;BME280;16191;49.548;8.658;2023-02-12T01:59:08;102477.41;;;5.64;100.00
29121;BME280;16191;49.548;8.658;2023-02-12T02:01:35;102474.84;;;5.66;100.00
29121;BME280;16191;49.548;8.658;2023-02-12T02:04:24;102476.47;;;5.58;100.00
29121;BME280;16191;49.548;8.658;2023-02-12T02:06:56;102467.97;;;5.68;100.00
29121;BME280;16191;49.548;8.658;2023-02-12T02:09:28;102473.94;;;5.61;100.00
29121;BME280;16191;49.548;8.658;2023-02-12T02:11:56;102473.06;;;5.60;100.00
29121;BME280;16191;49.548;8.658;2023-02-12T02:14:42;102470.47;;;5.60;100.00
29121;BME280;16191;49.548;8.658;2023-02-12T02:20:26;102467.06;;;5.64;100.00
29121;BME280;16191;49.548;8.658;2023-02-12T02:23:28;102469.59;;;5.60;100.00
29121;BME280;16191;49.548;8.658;2023-02-12T02:34:28;102470.50;;;5.63;100.00
29121;BME280;16191;49.548;8.658;2023-02-12T02:37:07;102472.88;;;5.49;100.00
29121;BME280;16191;49.548;8.658;2023-02-12T02:39:48;102479.75;;;5.47;100.00
29121;BME280;16191;49.548;8.658;2023-02-12T02:45:10;102479.03;;;5.56;100.00
29121;BME280;16191;49.548;8.658;2023-02-12T02:47:43;102478.16;;;5.56;100.00
29121;BME280;16191;49.548;8.658;2023-02-12T02:50:14;102465.22;;;5.56;100.00
29121;BME280;16191;49.548;8.658;2023-02-12T02:52:49;102466.09;;;5.56;100.00
29121;BME280;16191;49.548;8.658;2023-02-12T02:55:19;102466.09;;;5.56;100.00
29121;BME280;16191;49.548;8.658;2023-02-12T02:57:54;102474.69;;;5.54;100.00
29121;BME280;16191;49.548;8.658;2023-02-12T03:00:34;102472.06;;;5.52;100.00
29121;BME280;16191;49.548;8.658;2023-02-12T03:03:26;102468.72;;;5.58;100.00
29121;BME280;16191;49.548;8.658;2023-02-12T03:06:00;102466.88;;;5.52;100.00
29121;BME280;16191;49.548;8.658;2023-02-12T03:08:36;102467.75;;;5.51;100.00
29121;BME280;16191;49.548;8.658;2023-02-12T03:11:13;102466.97;;;5.57;100.00
29121;BME280;16191;49.548;8.658;2023-02-12T03:14:02;102468.69;;;5.56;100.00
29121;BME280;16191;49.548;8.658;2023-02-12T03:16:34;102464.44;;;5.60;100.00
29121;BME280;16191;49.548;8.658;2023-02-12T03:19:12;102473.94;;;5.61;100.00
29121;BME280;16191;49.548;8.658;2023-02-12T03:24:28;102463.53;;;5.58;100.00
29121;BME280;16191;49.548;8.658;2023-02-12T03:27:03;102467.84;;;5.57;100.00
29121;BME280;16191;49.548;8.658;2023-02-12T03:29:31;102460.88;;;5.55;100.00
29121;BME280;16191;49.548;8.658;2023-02-12T03:34:46;102467.81;;;5.56;100.00
29121;BME280;16191;49.548;8.658;2023-02-12T03:37:20;102475.38;;;5.43;100.00
29121;BME280;16191;49.548;8.658;2023-02-12T03:39:55;102471.16;;;5.50;100.00
29121;BME280;16191;49.548;8.658;2023-02-12T03:42:34;102468.59;;;5.51;100.00
29121;BME280;16191;49.548;8.658;2023-02-12T03:45:21;102473.00;;;5.56;100.00
29121;BME280;16191;49.548;8.658;2023-02-12T03:50:38;102475.34;;;5.40;100.00
29121;BME280;16191;49.548;8.658;2023-02-12T03:53:07;102480.59;;;5.46;100.00
29121;BME280;16191;49.548;8.658;2023-02-12T03:55:37;102479.56;;;5.34;100.00
29121;BME280;16191;49.548;8.658;2023-02-12T03:58:08;102476.97;;;5.34;100.00
29121;BME280;16191;49.548;8.658;2023-02-12T04:00:37;102481.34;;;5.38;100.00
29121;BME280;16191;49.548;8.658;2023-02-12T04:03:05;102475.97;;;5.27;100.00
29121;BME280;16191;49.548;8.658;2023-02-12T04:05:32;102474.38;;;5.34;100.00
29121;BME280;16191;49.548;8.658;2023-02-12T04:08:01;102476.97;;;5.34;100.00
29121;BME280;16191;49.548;8.658;2023-02-12T04:10:52;102472.75;;;5.40;100.00
29121;BME280;16191;49.548;8.658;2023-02-12T04:13:24;102477.06;;;5.41;100.00
29121;BME280;16191;49.548;8.658;2023-02-12T04:16:12;102473.66;;;5.44;100.00
29121;BME280;16191;49.548;8.658;2023-02-12T04:18:43;102476.22;;;5.41;100.00
29121;BME280;16191;49.548;8.658;2023-02-12T04:24:12;102495.09;;;5.34;100.00
29121;BME280;16191;49.548;8.658;2023-02-12T04:27:02;102494.13;;;5.29;100.00
29121;BME280;16191;49.548;8.658;2023-02-12T04:29:36;102490.66;;;5.28;100.00
29121;BME280;16191;49.548;8.658;2023-02-12T04:32:14;102492.38;;;5.28;100.00
29121;BME280;16191;49.548;8.658;2023-02-12T04:35:12;102500.34;;;5.38;100.00
29121;BME280;16191;49.548;8.658;2023-02-12T04:37:43;102499.56;;;5.45;100.00
29121;BME280;16191;49.548;8.658;2023-02-12T04:40:13;102497.91;;;5.49;100.00
29121;BME280;16191;49.548;8.658;2023-02-12T04:42:51;102491.88;;;5.48;100.00
29121;BME280;16191;49.548;8.658;2023-02-12T04:45:25;102495.09;;;5.35;100.00
29121;BME280;16191;49.548;8.658;2023-02-12T04:47:52;102502.13;;;5.41;100.00
29121;BME280;16191;49.548;8.658;2023-02-12T04:50:19;102496.81;;;5.33;100.00
29121;BME280;16191;49.548;8.658;2023-02-12T04:52:46;102500.38;;;5.40;100.00
29121;BME280;16191;49.548;8.658;2023-02-12T04:55:13;102496.06;;;5.40;100.00
29121;BME280;16191;49.548;8.658;2023-02-12T04:57:40;102494.31;;;5.39;100.00
29121;BME280;16191;49.548;8.658;2023-02-12T05:00:09;102488.88;;;5.24;100.00
29121;BME280;16191;49.548;8.658;2023-02-12T05:02:36;102489.63;;;5.17;100.00
29121;BME280;16191;49.548;8.658;2023-02-12T05:05:03;102487.06;;;5.20;100.00
29121;BME280;16191;49.548;8.658;2023-02-12T05:07:30;102487.84;;;5.13;100.00
29121;BME280;16191;49.548;8.658;2023-02-12T05:09:57;102489.72;;;5.23;100.00
29121;BME280;16191;49.548;8.658;2023-02-12T05:12:24;102486.38;;;5.29;100.00
29121;BME280;16191;49.548;8.658;2023-02-12T05:14:51;102488.91;;;5.26;100.00
29121;BME280;16191;49.548;8.658;2023-02-12T05:17:21;102484.44;;;5.15;100.00
29121;BME280;16191;49.548;8.658;2023-02-12T05:19:48;102487.75;;;5.08;100.00
29121;BME280;16191;49.548;8.658;2023-02-12T05:22:15;102482.56;;;5.08;100.00
29121;BME280;16191;49.548;8.658;2023-02-12T05:24:42;102478.94;;;4.99;100.00
29121;BME280;16191;49.548;8.658;2023-02-12T05:27:09;102475.41;;;4.92;100.00
29121;BME280;16191;49.548;8.658;2023-02-12T05:29:35;102481.50;;;4.96;100.00
29121;BME280;16191;49.548;8.658;2023-02-12T05:32:03;102486.66;;;4.96;100.00
29121;BME280;16191;49.548;8.658;2023-02-12T05:34:30;102490.84;;;4.89;100.00
29121;BME280;16191;49.548;8.658;2023-02-12T05:36:57;102485.75;;;4.92;100.00
29121;BME280;16191;49.548;8.658;2023-02-12T05:39:24;102493.44;;;4.89;100.00
29121;BME280;16191;49.548;8.658;2023-02-12T05:41:51;102496.94;;;4.91;100.00
29121;BME280;16191;49.548;8.658;2023-02-12T05:44:17;102494.22;;;4.85;100.00
29121;BME280;16191;49.548;8.658;2023-02-12T05:46:44;102490.63;;;4.75;100.00
29121;BME280;16191;49.548;8.658;2023-02-12T05:49:11;102498.44;;;4.80;100.00
29121;BME280;16191;49.548;8.658;2023-02-12T05:51:38;102490.97;;;4.95;100.00
29121;BME280;16191;49.548;8.658;2023-02-12T05:54:05;102496.03;;;4.89;100.00
29121;BME280;16191;49.548;8.658;2023-02-12T05:56:36;102505.31;;;4.79;100.00
29121;BME280;16191;49.548;8.658;2023-02-12T05:59:06;102503.66;;;4.83;100.00
29121;BME280;16191;49.548;8.658;2023-02-12T06:01:35;102503.66;;;4.83;100.00
29121;BME280;16191;49.548;8.658;2023-02-12T06:04:06;102501.88;;;4.80;100.00
29121;BME280;16191;49.548;8.658;2023-02-12T06:06:34;102510.44;;;4.76;100.00
29121;BME280;16191;49.548;8.658;2023-02-12T06:09:01;102499.28;;;4.79;100.00
29121;BME280;16191;49.548;8.658;2023-02-12T06:11:28;102504.50;;;4.82;100.00
29121;BME280;16191;49.548;8.658;2023-02-12T06:13:55;102501.06;;;4.81;100.00
29121;BME280;16191;49.548;8.658;2023-02-12T06:16:26;102509.78;;;4.87;100.00
29121;BME280;16191;49.548;8.658;2023-02-12T06:18:54;102509.06;;;4.94;100.00
29121;BME280;16191;49.548;8.658;2023-02-12T06:21:22;102513.19;;;4.86;100.00
29121;BME280;16191;49.548;8.658;2023-02-12T06:23:50;102513.31;;;4.92;100.00
29121;BME280;16191;49.548;8.658;2023-02-12T06:26:18;102517.56;;;4.88;100.00
29121;BME280;16191;49.548;8.658;2023-02-12T06:28:45;102514.13;;;4.89;100.00
29121;BME280;16191;49.548;8.658;2023-02-12T06:31:26;102513.38;;;4.95;100.00
29121;BME280;16191;49.548;8.658;2023-02-12T06:33:54;102516.94;;;5.01;100.00
29121;BME280;16191;49.548;8.658;2023-02-12T06:36:22;102524.56;;;4.94;100.00
29121;BME280;16191;49.548;8.658;2023-02-12T06:38:49;102510.66;;;4.87;100.00
29121;BME280;16191;49.548;8.658;2023-02-12T06:41:16;102518.59;;;4.96;100.00
29121;BME280;16191;49.548;8.658;2023-02-12T06:43:43;102516.03;;;4.98;100.00
29121;BME280;16191;49.548;8.658;2023-02-12T06:46:12;102521.19;;;4.96;100.00
29121;BME280;16191;49.548;8.658;2023-02-12T06:48:40;102528.91;;;4.95;100.00
29121;BME280;16191;49.548;8.658;2023-02-12T06:51:09;102525.34;;;4.90;100.00
29121;BME280;16191;49.548;8.658;2023-02-12T06:53:36;102531.44;;;4.92;100.00
29121;BME280;16191;49.548;8.658;2023-02-12T06:56:05;102528.72;;;4.86;100.00
29121;BME280;16191;49.548;8.658;2023-02-12T06:58:32;102530.47;;;4.87;100.00
29121;BME280;16191;49.548;8.658;2023-02-12T07:01:10;102532.34;;;4.94;100.00
29121;BME280;16191;49.548;8.658;2023-02-12T07:03:40;102541.84;;;4.95;100.00
29121;BME280;16191;49.548;8.658;2023-02-12T07:06:07;102540.09;;;4.94;100.00
29121;BME280;16191;49.548;8.658;2023-02-12T07:08:36;102547.91;;;4.95;100.00
29121;BME280;16191;49.548;8.658;2023-02-12T07:11:03;102550.41;;;4.92;100.00
29121;BME280;16191;49.548;8.658;2023-02-12T07:13:31;102553.97;;;4.97;100.00
29121;BME280;16191;49.548;8.658;2023-02-12T07:16:09;102552.28;;;5.01;100.00
29121;BME280;16191;49.548;8.658;2023-02-12T07:18:37;102554.97;;;5.05;100.00
29121;BME280;16191;49.548;8.658;2023-02-12T07:21:05;102563.53;;;5.03;100.00
29121;BME280;16191;49.548;8.658;2023-02-12T07:23:32;102558.50;;;5.09;100.00
29121;BME280;16191;49.548;8.658;2023-02-12T07:26:09;102561.06;;;5.09;100.00
29121;BME280;16191;49.548;8.658;2023-02-12T07:28:39;102560.31;;;5.14;100.00
29121;BME280;16191;49.548;8.658;2023-02-12T07:31:13;102564.59;;;5.12;100.00
29121;BME280;16191;49.548;8.658;2023-02-12T07:33:41;102569.81;;;5.14;100.00
29121;BME280;16191;49.548;8.658;2023-02-12T07:36:11;102564.72;;;5.20;100.00
29121;BME280;16191;49.548;8.658;2023-02-12T07:38:39;102559.28;;;5.05;100.00
29121;BME280;16191;49.548;8.658;2023-02-12T07:41:20;102562.69;;;5.04;100.00
29121;BME280;16191;49.548;8.658;2023-02-12T07:43:51;102569.66;;;5.06;100.00
29121;BME280;16191;49.548;8.658;2023-02-12T07:46:25;102567.28;;;5.17;100.00
29121;BME280;16191;49.548;8.658;2023-02-12T07:49:00;102564.75;;;5.22;100.00
29121;BME280;16191;49.548;8.658;2023-02-12T07:51:28;102563.94;;;5.24;100.00
29121;BME280;16191;49.548;8.658;2023-02-12T07:53:55;102567.38;;;5.23;100.00
29121;BME280;16191;49.548;8.658;2023-02-12T07:56:24;102564.72;;;5.20;100.00
29121;BME280;16191;49.548;8.658;2023-02-12T07:58:55;102570.88;;;5.27;100.00
29121;BME280;16191;49.548;8.658;2023-02-12T08:01:25;102571.84;;;5.32;100.00
29121;BME280;16191;49.548;8.658;2023-02-12T08:04:02;102565.88;;;5.36;100.00
29121;BME280;16191;49.548;8.658;2023-02-12T08:06:30;102564.19;;;5.38;100.00
29121;BME280;16191;49.548;8.658;2023-02-12T08:08:59;102565.03;;;5.37;100.00
29121;BME280;16191;49.548;8.658;2023-02-12T08:11:27;102569.13;;;5.26;100.00
29121;BME280;16191;49.548;8.658;2023-02-12T08:13:54;102573.63;;;5.34;100.00
29121;BME280;16191;49.548;8.658;2023-02-12T08:16:24;102566.97;;;5.48;100.00
29121;BME280;16191;49.548;8.658;2023-02-12T08:18:51;102568.72;;;5.51;100.00
29121;BME280;16191;49.548;8.658;2023-02-12T08:21:20;102571.41;;;5.56;100.00
29121;BME280;16191;49.548;8.658;2023-02-12T08:23:48;102571.41;;;5.56;100.00
29121;BME280;16191;49.548;8.658;2023-02-12T08:26:21;102571.44;;;5.57;100.00
29121;BME280;16191;49.548;8.658;2023-02-12T08:28:54;102574.16;;;5.66;100.00
29121;BME280;16191;49.548;8.658;2023-02-12T08:31:23;102575.06;;;5.68;100.00
29121;BME280;16191;49.548;8.658;2023-02-12T08:33:51;102576.84;;;5.72;100.00
29121;BME280;16191;49.548;8.658;2023-02-12T08:36:20;102578.56;;;5.72;100.00
29121;BME280;16191;49.548;8.658;2023-02-12T08:38:47;102581.25;;;5.76;100.00
29121;BME280;16191;49.548;8.658;2023-02-12T08:41:23;102573.53;;;5.79;100.00
29121;BME280;16191;49.548;8.658;2023-02-12T08:43:52;102577.91;;;5.85;100.00
29121;BME280;16191;49.548;8.658;2023-02-12T08:46:24;102577.97;;;5.88;100.00
29121;BME280;16191;49.548;8.658;2023-02-12T08:48:53;102578.81;;;5.87;100.00
29121;BME280;16191;49.548;8.658;2023-02-12T08:51:23;102577.28;;;5.97;100.00
29121;BME280;16191;49.548;8.658;2023-02-12T08:53:51;102585.00;;;5.94;100.00
29121;BME280;16191;49.548;8.658;2023-02-12T08:56:20;102588.63;;;6.03;100.00
29121;BME280;16191;49.548;8.658;2023-02-12T08:58:47;102590.38;;;6.07;100.00
29121;BME280;16191;49.548;8.658;2023-02-12T09:01:20;102585.28;;;6.13;100.00
29121;BME280;16191;49.548;8.658;2023-02-12T09:03:47;102579.31;;;6.17;100.00
29121;BME280;16191;49.548;8.658;2023-02-12T09:06:17;102589.78;;;6.24;100.00
29121;BME280;16191;49.548;8.658;2023-02-12T09:08:44;102588.97;;;6.26;100.00
29121;BME280;16191;49.548;8.658;2023-02-12T09:11:13;102593.28;;;6.27;100.00
29121;BME280;16191;49.548;8.658;2023-02-12T09:13:43;102586.38;;;6.28;100.00
29121;BME280;16191;49.548;8.658;2023-02-12T09:16:13;102593.28;;;6.27;100.00
29121;BME280;16191;49.548;8.658;2023-02-12T09:18:40;102591.72;;;6.38;100.00
29121;BME280;16191;49.548;8.658;2023-02-12T09:21:09;102596.13;;;6.45;100.00
29121;BME280;16191;49.548;8.658;2023-02-12T09:23:37;102591.78;;;6.43;100.00
29121;BME280;16191;49.548;8.658;2023-02-12T09:26:05;102580.59;;;6.47;100.00
29121;BME280;16191;49.548;8.658;2023-02-12T09:28:33;102586.63;;;6.46;100.00
29121;BME280;16191;49.548;8.658;2023-02-12T09:31:13;102590.94;;;6.44;100.00
29121;BME280;16191;49.548;8.658;2023-02-12T09:33:41;102584.94;;;6.51;100.00
29121;BME280;16191;49.548;8.658;2023-02-12T09:36:11;102592.09;;;6.67;100.00
29121;BME280;16191;49.548;8.658;2023-02-12T09:38:39;102586.09;;;6.74;100.00
29121;BME280;16191;49.548;8.658;2023-02-12T09:44:03;102598.28;;;6.78;100.00
29121;BME280;16191;49.548;8.658;2023-02-12T09:46:41;102590.50;;;6.80;100.00
29121;BME280;16191;49.548;8.658;2023-02-12T09:51:50;102603.66;;;6.92;100.00
29121;BME280;16191;49.548;8.658;2023-02-12T09:54:23;102599.34;;;6.93;100.00
29121;BME280;16191;49.548;8.658;2023-02-12T09:56:54;102601.06;;;6.92;100.00
29121;BME280;16191;49.548;8.658;2023-02-12T09:59:32;102610.63;;;6.98;100.00
29121;BME280;16191;49.548;8.658;2023-02-12T10:02:00;102602.88;;;7.02;100.00
29121;BME280;16191;49.548;8.658;2023-02-12T10:04:27;102595.97;;;7.03;100.00
29121;BME280;16191;49.548;8.658;2023-02-12T10:07:08;102593.50;;;7.12;100.00
29121;BME280;16191;49.548;8.658;2023-02-12T10:10:20;102596.13;;;7.18;100.00
29121;BME280;16191;49.548;8.658;2023-02-12T10:15:33;102596.00;;;7.04;100.00
29121;BME280;16191;49.548;8.658;2023-02-12T10:21:02;102588.38;;;7.21;100.00
29121;BME280;16191;49.548;8.658;2023-02-12T10:23:59;102584.13;;;7.28;100.00
29121;BME280;16191;49.548;8.658;2023-02-12T10:26:34;102579.06;;;7.41;100.00
29121;BME280;16191;49.548;8.658;2023-02-12T10:29:19;102580.91;;;7.54;100.00
29121;BME280;16191;49.548;8.658;2023-02-12T10:32:35;102576.63;;;7.61;100.00
29121;BME280;16191;49.548;8.658;2023-02-12T10:34:43;102579.22;;;7.61;100.00
29121;BME280;16191;49.548;8.658;2023-02-12T10:37:31;102568.81;;;7.58;100.00
29121;BME280;16191;49.548;8.658;2023-02-12T10:40:17;102568.09;;;7.76;100.00
29121;BME280;16191;49.548;8.658;2023-02-12T10:42:50;102563.81;;;7.84;100.00
29121;BME280;16191;49.548;8.658;2023-02-12T10:45:20;102562.09;;;7.84;100.00
29121;BME280;16191;49.548;8.658;2023-02-12T10:47:51;102561.28;;;7.90;100.00
29121;BME280;16191;49.548;8.658;2023-02-12T10:50:27;102561.28;;;7.93;100.00
29121;BME280;16191;49.548;8.658;2023-02-12T10:53:00;102560.44;;;7.96;100.00
29121;BME280;16191;49.548;8.658;2023-02-12T10:55:31;102563.97;;;8.01;100.00
29121;BME280;16191;49.548;8.658;2023-02-12T10:57:59;102553.59;;;8.10;100.00
29121;BME280;16191;49.548;8.658;2023-02-12T11:00:34;102552.72;;;8.09;100.00
29121;BME280;16191;49.548;8.658;2023-02-12T11:05:43;102551.09;;;8.22;100.00
29121;BME280;16191;49.548;8.658;2023-02-12T11:08:33;102546.75;;;8.27;100.00
29121;BME280;16191;49.548;8.658;2023-02-12T11:11:27;102550.31;;;8.34;100.00
29121;BME280;16191;49.548;8.658;2023-02-12T11:14:01;102546.75;;;8.27;100.00
29121;BME280;16191;49.548;8.658;2023-02-12T11:16:31;102537.22;;;8.29;100.00
29121;BME280;16191;49.548;8.658;2023-02-12T11:19:04;102538.97;;;8.29;100.00
29121;BME280;16191;49.548;8.658;2023-02-12T11:21:32;102534.75;;;8.43;100.00
29121;BME280;16191;49.548;8.658;2023-02-12T11:24:27;102529.53;;;8.41;100.00
29121;BME280;16191;49.548;8.658;2023-02-12T11:29:42;102525.28;;;8.62;100.00
29121;BME280;16191;49.548;8.658;2023-02-12T11:32:16;102523.53;;;8.68;100.00
29121;BME280;16191;49.548;8.658;2023-02-12T11:35:03;102511.44;;;8.79;100.00
29121;BME280;16191;49.548;8.658;2023-02-12T11:37:32;102516.66;;;8.84;100.00
29121;BME280;16191;49.548;8.658;2023-02-12T11:40:02;102514.91;;;8.89;100.00
29121;BME280;16191;49.548;8.658;2023-02-12T11:42:33;102504.53;;;8.97;100.00
29121;BME280;16191;49.548;8.658;2023-02-12T11:45:02;102504.53;;;8.98;100.00
29121;BME280;16191;49.548;8.658;2023-02-12T11:47:33;102503.69;;;9.05;100.00
29121;BME280;16191;49.548;8.658;2023-02-12T11:52:35;102495.00;;;9.11;100.00
29121;BME280;16191;49.548;8.658;2023-02-12T11:55:06;102496.75;;;9.25;100.00
29121;BME280;16191;49.548;8.658;2023-02-12T11:57:38;102493.28;;;9.23;100.00
29121;BME280;16191;49.548;8.658;2023-02-12T12:00:15;102491.53;;;9.21;100.00
29121;BME280;16191;49.548;8.658;2023-02-12T12:02:54;102488.09;;;9.30;100.00
29121;BME280;16191;49.548;8.658;2023-02-12T12:05:30;102486.34;;;9.41;100.00
29121;BME280;16191;49.548;8.658;2023-02-12T12:08:03;102488.03;;;9.54;100.00
29121;BME280;16191;49.548;8.658;2023-02-12T12:10:39;102482.84;;;9.65;100.00
29121;BME280;16191;49.548;8.658;2023-02-12T12:13:21;102482.84;;;9.65;100.00
29121;BME280;16191;49.548;8.658;2023-02-12T12:15:59;102476.75;;;9.69;100.00
29121;BME280;16191;49.548;8.658;2023-02-12T12:18:53;102476.72;;;9.75;100.00
29121;BME280;16191;49.548;8.658;2023-02-12T12:21:53;102464.53;;;9.83;100.00
29121;BME280;16191;49.548;8.658;2023-02-12T12:24:28;102470.63;;;9.89;100.00
29121;BME280;16191;49.548;8.658;2023-02-12T12:27:06;102468.84;;;10.02;100.00
29121;BME280;16191;49.548;8.658;2023-02-12T12:29:57;102464.47;;;10.07;100.00
29121;BME280;16191;49.548;8.658;2023-02-12T12:32:29;102471.41;;;10.20;100.00
29121;BME280;16191;49.548;8.658;2023-02-12T12:34:56;102462.66;;;10.35;100.00
29121;BME280;16191;49.548;8.658;2023-02-12T12:37:37;102463.50;;;10.40;100.00
29121;BME280;16191;49.548;8.658;2023-02-12T12:40:24;102455.53;;;10.64;100.00
29121;BME280;16191;49.548;8.658;2023-02-12T12:43:02;102457.19;;;10.82;100.00
29121;BME280;16191;49.548;8.658;2023-02-12T12:54:47;102432.41;;;11.27;100.00
29121;BME280;16191;49.548;8.658;2023-02-12T13:00:24;102427.91;;;12.24;92.63
29121;BME280;16191;49.548;8.658;2023-02-12T13:03:10;102422.03;;;12.68;86.84
29121;BME280;16191;49.548;8.658;2023-02-12T13:06:04;102421.72;;;12.90;86.65
29121;BME280;16191;49.548;8.658;2023-02-12T13:09:00;102417.16;;;12.99;84.14
29121;BME280;16191;49.548;8.658;2023-02-12T13:11:56;102413.00;;;13.42;80.76
29121;BME280;16191;49.548;8.658;2023-02-12T13:15:04;102420.19;;;12.77;78.62
29121;BME280;16191;49.548;8.658;2023-02-12T13:20:40;102408.88;;;13.75;75.53
29121;BME280;16191;49.548;8.658;2023-02-12T13:25:51;102396.06;;;14.02;72.25
29121;BME280;16191;49.548;8.658;2023-02-12T13:28:34;102395.88;;;14.10;70.34
29121;BME280;16191;49.548;8.658;2023-02-12T13:31:06;102410.06;;;14.03;70.50
29121;BME280;16191;49.548;8.658;2023-02-12T13:34:00;102406.50;;;13.62;74.32
29121;BME280;16191;49.548;8.658;2023-02-12T13:36:27;102397.34;;;13.37;75.81
29121;BME280;16191;49.548;8.658;2023-02-12T13:41:24;102395.78;;;13.25;78.97
29121;BME280;16191;49.548;8.658;2023-02-12T13:44:00;102394.75;;;13.35;75.89
29121;BME280;16191;49.548;8.658;2023-02-12T13:46:51;102395.13;;;13.16;76.56
29121;BME280;16191;49.548;8.658;2023-02-12T13:52:23;102382.94;;;14.02;73.85
29121;BME280;16191;49.548;8.658;2023-02-12T13:55:03;102380.72;;;14.24;73.00
29121;BME280;16191;49.548;8.658;2023-02-12T13:57:36;102380.97;;;14.52;70.92
29121;BME280;16191;49.548;8.658;2023-02-12T14:00:03;102384.06;;;14.29;71.17
29121;BME280;16191;49.548;8.658;2023-02-12T14:05:15;102382.09;;;14.78;68.90
29121;BME280;16191;49.548;8.658;2023-02-12T14:07:46;102380.13;;;15.21;67.83
29121;BME280;16191;49.548;8.658;2023-02-12T14:10:21;102371.78;;;14.71;67.19
29121;BME280;16191;49.548;8.658;2023-02-12T14:12:48;102379.75;;;13.87;71.30
29121;BME280;16191;49.548;8.658;2023-02-12T14:15:31;102373.41;;;14.37;71.78
29121;BME280;16191;49.548;8.658;2023-02-12T14:20:31;102364.50;;;14.81;69.18
29121;BME280;16191;49.548;8.658;2023-02-12T14:23:22;102368.28;;;15.70;67.59
29121;BME280;16191;49.548;8.658;2023-02-12T14:36:41;102361.84;;;15.49;63.72
29121;BME280;16191;49.548;8.658;2023-02-12T14:39:27;102355.81;;;16.06;64.61
29121;BME280;16191;49.548;8.658;2023-02-12T14:44:37;102352.22;;;16.38;61.59
29121;BME280;16191;49.548;8.658;2023-02-12T14:50:02;102344.19;;;16.13;60.59
29121;BME280;16191;49.548;8.658;2023-02-12T14:52:38;102346.56;;;16.49;61.05